sensor_id;sensor_type;location;lat;lon;timestamp;temperature;humidity
37158;DHT22;23050;51.776;22.638;2022-11-03T18:48:00;5.30;99.90
37158;DHT22;23050;51.776;22.638;2022-11-03T18:50:26;5.20;99.90
37158;DHT22;23050;51.776;22.638;2022-11-03T18:52:51;5.10;99.90
37158;DHT22;23050;51.776;22.638;2022-11-03T18:55:17;5.10;99.90
37158;DHT22;23050;51.776;22.638;2022-11-03T18:57:43;5.00;99.90
37158;DHT22;23050;51.776;22.638;2022-11-03T19:00:20;5.00;99.90
37158;DHT22;23050;51.776;22.638;2022-11-03T19:02:48;4.90;99.90
37158;DHT22;23050;51.776;22.638;2022-11-03T19:05:15;4.90;99.90
37158;DHT22;23050;51.776;22.638;2022-11-03T19:07:43;4.80;99.90
37158;DHT22;23050;51.776;22.638;2022-11-03T19:10:12;4.80;99.90
37158;DHT22;23050;51.776;22.638;2022-11-03T19:12:40;4.80;99.90
37158;DHT22;23050;51.776;22.638;2022-11-03T19:15:16;4.70;99.90
37158;DHT22;23050;51.776;22.638;2022-11-03T19:17:42;4.70;99.90
37158;DHT22;23050;51.776;22.638;2022-11-03T19:20:12;4.70;99.90
37158;DHT22;23050;51.776;22.638;2022-11-03T19:22:37;4.70;99.90
37158;DHT22;23050;51.776;22.638;2022-11-03T19:25:03;4.70;99.90
37158;DHT22;23050;51.776;22.638;2022-11-03T19:27:31;4.60;99.90
37158;DHT22;23050;51.776;22.638;2022-11-03T19:29:58;4.50;99.90
37158;DHT22;23050;51.776;22.638;2022-11-03T19:32:30;4.50;99.90
37158;DHT22;23050;51.776;22.638;2022-11-03T19:35:04;4.50;99.90
37158;DHT22;23050;51.776;22.638;2022-11-03T19:37:31;4.50;99.90
37158;DHT22;23050;51.776;22.638;2022-11-03T19:39:57;4.50;99.90
37158;DHT22;23050;51.776;22.638;2022-11-03T19:42:23;4.40;99.90
37158;DHT22;23050;51.776;22.638;2022-11-03T19:44:58;4.40;99.90
37158;DHT22;23050;51.776;22.638;2022-11-03T19:47:30;4.40;99.90
37158;DHT22;23050;51.776;22.638;2022-11-03T19:50:00;4.40;99.90
37158;DHT22;23050;51.776;22.638;2022-11-03T19:52:27;4.40;99.90
37158;DHT22;23050;51.776;22.638;2022-11-03T19:54:54;4.40;99.90
37158;DHT22;23050;51.776;22.638;2022-11-03T19:57:20;4.40;99.90
37158;DHT22;23050;51.776;22.638;2022-11-03T19:59:45;4.40;99.90
37158;DHT22;23050;51.776;22.638;2022-11-03T20:02:11;4.40;99.90
37158;DHT22;23050;51.776;22.638;2022-11-03T20:04:38;4.30;99.90
37158;DHT22;23050;51.776;22.638;2022-11-03T20:07:04;4.30;99.90
37158;DHT22;23050;51.776;22.638;2022-11-03T20:09:31;4.30;99.90
37158;DHT22;23050;51.776;22.638;2022-11-03T20:12:02;4.30;99.90
37158;DHT22;23050;51.776;22.638;2022-11-03T20:14:28;4.30;99.90
37158;DHT22;23050;51.776;22.638;2022-11-03T20:17:13;4.30;99.90
37158;DHT22;23050;51.776;22.638;2022-11-03T20:19:42;4.30;99.90
37158;DHT22;23050;51.776;22.638;2022-11-03T20:22:16;4.20;99.90
37158;DHT22;23050;51.776;22.638;2022-11-03T20:24:55;4.20;99.90
37158;DHT22;23050;51.776;22.638;2022-11-03T20:27:22;4.10;99.90
37158;DHT22;23050;51.776;22.638;2022-11-03T20:29:47;4.10;99.90
37158;DHT22;23050;51.776;22.638;2022-11-03T20:32:13;4.00;99.90
37158;DHT22;23050;51.776;22.638;2022-11-03T20:34:40;4.00;99.90
37158;DHT22;23050;51.776;22.638;2022-11-03T20:37:14;4.00;99.90
37158;DHT22;23050;51.776;22.638;2022-11-03T20:39:42;4.00;99.90
37158;DHT22;23050;51.776;22.638;2022-11-03T20:42:23;4.00;99.90
37158;DHT22;23050;51.776;22.638;2022-11-03T20:44:53;3.90;99.90
37158;DHT22;23050;51.776;22.638;2022-11-03T20:47:19;4.00;99.90
37158;DHT22;23050;51.776;22.638;2022-11-03T20:49:45;4.00;99.90
37158;DHT22;23050;51.776;22.638;2022-11-03T20:52:12;4.10;99.90
37158;DHT22;23050;51.776;22.638;2022-11-03T20:54:38;4.10;99.90
37158;DHT22;23050;51.776;22.638;2022-11-03T20:57:04;4.20;99.90
37158;DHT22;23050;51.776;22.638;2022-11-03T20:59:29;4.10;99.90
37158;DHT22;23050;51.776;22.638;2022-11-03T21:01:55;4.10;99.90
37158;DHT22;23050;51.776;22.638;2022-11-03T21:04:22;4.10;99.90
37158;DHT22;23050;51.776;22.638;2022-11-03T21:06:47;4.10;99.90
37158;DHT22;23050;51.776;22.638;2022-11-03T21:09:15;4.00;99.90
37158;DHT22;23050;51.776;22.638;2022-11-03T21:11:42;4.10;99.90
37158;DHT22;23050;51.776;22.638;2022-11-03T21:16:38;4.10;99.90
37158;DHT22;23050;51.776;22.638;2022-11-03T21:19:25;4.20;99.90
37158;DHT22;23050;51.776;22.638;2022-11-03T21:22:15;4.30;99.90
37158;DHT22;23050;51.776;22.638;2022-11-03T21:24:41;4.20;99.90
37158;DHT22;23050;51.776;22.638;2022-11-03T21:27:11;4.30;99.90
37158;DHT22;23050;51.776;22.638;2022-11-03T21:29:41;4.20;99.90
37158;DHT22;23050;51.776;22.638;2022-11-03T21:32:11;4.30;99.90
37158;DHT22;23050;51.776;22.638;2022-11-03T21:34:37;4.40;99.90
37158;DHT22;23050;51.776;22.638;2022-11-03T21:37:03;4.50;99.90
37158;DHT22;23050;51.776;22.638;2022-11-03T21:39:30;4.60;99.90
37158;DHT22;23050;51.776;22.638;2022-11-03T21:41:56;4.60;99.90
37158;DHT22;23050;51.776;22.638;2022-11-03T21:44:41;4.60;99.90
37158;DHT22;23050;51.776;22.638;2022-11-03T21:47:06;4.50;99.90
37158;DHT22;23050;51.776;22.638;2022-11-03T21:49:32;4.50;99.90
37158;DHT22;23050;51.776;22.638;2022-11-03T21:54:33;4.50;99.90
37158;DHT22;23050;51.776;22.638;2022-11-03T21:56:59;4.50;99.90
37158;DHT22;23050;51.776;22.638;2022-11-03T21:59:24;4.50;99.90
37158;DHT22;23050;51.776;22.638;2022-11-03T22:01:50;4.50;99.90
37158;DHT22;23050;51.776;22.638;2022-11-03T22:04:20;4.50;99.90
37158;DHT22;23050;51.776;22.638;2022-11-03T22:06:47;4.50;99.90
37158;DHT22;23050;51.776;22.638;2022-11-03T22:09:12;4.50;99.90
37158;DHT22;23050;51.776;22.638;2022-11-03T22:11:38;4.50;99.90
37158;DHT22;23050;51.776;22.638;2022-11-03T22:14:03;4.50;99.90
37158;DHT22;23050;51.776;22.638;2022-11-03T22:16:29;4.50;99.90
37158;DHT22;23050;51.776;22.638;2022-11-03T22:19:16;4.50;99.90
37158;DHT22;23050;51.776;22.638;2022-11-03T22:22:08;4.50;99.90
37158;DHT22;23050;51.776;22.638;2022-11-03T22:24:53;4.40;99.90
37158;DHT22;23050;51.776;22.638;2022-11-03T22:27:37;4.40;99.90
37158;DHT22;23050;51.776;22.638;2022-11-03T22:30:03;4.30;99.90
37158;DHT22;23050;51.776;22.638;2022-11-03T22:32:52;4.40;99.90
37158;DHT22;23050;51.776;22.638;2022-11-03T22:35:18;4.40;99.90
37158;DHT22;23050;51.776;22.638;2022-11-03T22:38:11;4.50;99.90
37158;DHT22;23050;51.776;22.638;2022-11-03T22:40:38;4.60;99.90
37158;DHT22;23050;51.776;22.638;2022-11-03T22:43:23;4.60;99.90
37158;DHT22;23050;51.776;22.638;2022-11-03T22:46:09;4.60;99.90
37158;DHT22;23050;51.776;22.638;2022-11-03T22:48:35;4.60;99.90
37158;DHT22;23050;51.776;22.638;2022-11-03T22:51:07;4.60;99.90
37158;DHT22;23050;51.776;22.638;2022-11-03T22:53:35;4.50;99.90
37158;DHT22;23050;51.776;22.638;2022-11-03T22:56:21;4.50;99.90
37158;DHT22;23050;51.776;22.638;2022-11-03T22:58:47;4.40;99.90
37158;DHT22;23050;51.776;22.638;2022-11-03T23:01:17;4.40;99.90
37158;DHT22;23050;51.776;22.638;2022-11-03T23:03:44;4.40;99.90
37158;DHT22;23050;51.776;22.638;2022-11-03T23:06:13;4.40;99.90
37158;DHT22;23050;51.776;22.638;2022-11-03T23:08:40;4.30;99.90
